Giltner, NE (68841)

5:16 AM CDT on September 16, 2014 (GMT -0500)
Buller Spraying, inc. | Change Station
CLOSE
Current Station
Personal Weather Station
Location: Henderson, NE
Elevation: 1785 ft
Nearby Weather Stations

Elev 1785 ft 40.70 °N, 97.90 °W | Updated 55 seconds ago

Clear
Clear
43.3 °F
Feels Like 43 °F
N
0.0
Wind Variable Wind from SSE
Gusts 6.0 mph

Today
High -- | Low -- °F
--% Chance of Precip.
Yesterday
High -- | Low -- °F
Precip. -- in
7:14 AM 7:39 PM
Waning Gibbous, 47% visible
Pressure 30.25 in
Visibility 10.0 miles
Clouds Clear
Windchill 43 °F
Dew Point 41 °F
Humidity 93%
Rainfall 0.00 in
Snow Depth Not available.
UV 0 out of 12
Pollen 4.80 out of 12
Air Quality Not available.
Flu Activity Not available.
METAR KAUH 160955Z AUTO 18004KT 10SM CLR 07/06 A3025 RMK AO2 T00690055

More Conditions Fewer Conditions

Pressure 30.25 in
Visibility 10.0 miles
Clouds Clear
Windchill 43 °F
Dew Point 41 °F
Humidity 93%
Rainfall 0.00 in
Snow Depth Not available.
UV 0 out of 12
Pollen 4.80 out of 12
Air Quality Not available.
Flu Activity Not available.
METAR KAUH 160955Z AUTO 18004KT 10SM CLR 07/06 A3025 RMK AO2 T00690055

More Conditions Fewer Conditions

10-Day Weather Forecast

Almanac

Astronomy

Sep. 16, 2014 Rise Set
Actual Time 7:14 AM CDT 7:39 PM CDT
Civil Twilight 6:46 AM CDT 8:07 PM CDT
Nautical Twilight 6:14 AM CDT 8:39 PM CDT
Astronomical Twilight 5:41 AM CDT 9:12 PM CDT
Moon 12:23 AM CDT 3:06 PM CDT
Length of Visible Light 13h 20m
Length of Day
12h 25m
Tomorrow will be 2m 41s shorter.
Waning Gibbous, 47% of the Moon is Illuminated
Today
Waning Gibbous
Sep 24
New
Oct 1
First Quarter
Oct 8
Full
Oct 15
Last Quarter

Today's Extremes

State Highs State Lows

Community

WunderPhotos

Upload Photos

1,753,717 photos uploaded!

WunderBlogs® & News

Nearby

Snow Depth

Station Depth Elevation
No new snow has been reported.

Earthquake Activity

City Distance Mag. Time & Date
No recent earthquake activity has been reported nearby.
Minimum magnitude displayed is 2.5.

Coastal Water Temperatures

Place Temperature
No Stations Reporting

Nearby Weather Stations